createdAt,value
2023-05-14T00:04:07.297Z,11.90
2023-05-14T00:09:08.784Z,9.75
2023-05-14T00:14:10.270Z,10.13
2023-05-14T00:19:11.792Z,11.63
2023-05-14T00:24:13.311Z,10.70
2023-05-14T00:29:14.778Z,10.93
2023-05-14T00:34:16.159Z,9.10
2023-05-14T00:39:17.580Z,12.23
2023-05-14T00:44:19.054Z,10.75
2023-05-14T00:49:21.132Z,12.40
2023-05-14T00:54:22.833Z,13.73
2023-05-14T00:59:24.256Z,15.32
2023-05-14T01:04:25.851Z,13.95
2023-05-14T01:09:42.846Z,11.68
2023-05-14T01:15:09.270Z,13.23
2023-05-14T01:20:11.560Z,11.48
2023-05-14T01:25:13.042Z,13.15
2023-05-14T01:30:22.999Z,11.70
2023-05-14T01:35:27.507Z,16.20
2023-05-14T01:40:31.213Z,12.77
2023-05-14T01:45:35.692Z,12.55
2023-05-14T01:50:37.162Z,14.95
2023-05-14T01:55:38.696Z,12.40
2023-05-14T02:00:40.097Z,12.55
2023-05-14T02:05:41.518Z,15.88
2023-05-14T02:10:42.928Z,16.38
2023-05-14T02:15:44.332Z,16.13
2023-05-14T02:20:46.636Z,14.80
2023-05-14T02:25:48.026Z,15.07
2023-05-14T02:30:49.491Z,16.25
2023-05-14T02:35:50.915Z,15.52
2023-05-14T02:40:52.426Z,15.20
2023-05-14T02:45:53.906Z,14.57
2023-05-14T02:50:55.381Z,15.20
2023-05-14T02:55:56.800Z,18.80
2023-05-14T03:00:58.787Z,14.05
2023-05-14T03:06:00.599Z,14.82
2023-05-14T03:11:02.607Z,15.75
2023-05-14T03:16:04.168Z,17.63
2023-05-14T03:21:05.702Z,16.88
2023-05-14T03:26:07.192Z,17.00
2023-05-14T03:31:08.674Z,18.00
2023-05-14T03:36:10.189Z,18.10
2023-05-14T03:41:11.780Z,22.10
2023-05-14T03:46:13.299Z,16.65
2023-05-14T03:51:14.730Z,17.20
2023-05-14T03:56:16.173Z,22.08
2023-05-14T04:01:17.574Z,18.95
2023-05-14T04:06:19.391Z,21.63
2023-05-14T04:11:21.600Z,19.20
2023-05-14T04:16:23.295Z,19.60
2023-05-14T04:21:24.866Z,14.32
2023-05-14T04:26:26.562Z,19.83
2023-05-14T04:31:28.164Z,24.92
2023-05-14T04:36:29.603Z,21.27
2023-05-14T04:41:31.005Z,20.17
2023-05-14T04:46:32.508Z,23.92
2023-05-14T04:51:34.006Z,21.00
2023-05-14T04:56:35.574Z,21.88
2023-05-14T05:01:37.114Z,22.83
2023-05-14T05:06:38.707Z,21.35
2023-05-14T05:11:40.095Z,21.17
2023-05-14T05:16:41.553Z,23.77
2023-05-14T05:21:43.025Z,24.65
2023-05-14T05:26:44.434Z,23.50
2023-05-14T05:31:46.212Z,19.10
2023-05-14T05:36:47.700Z,24.15
2023-05-14T05:41:49.274Z,23.92
2023-05-14T05:46:51.121Z,23.65
2023-05-14T05:51:52.666Z,20.95
2023-05-14T05:56:54.109Z,26.15
2023-05-14T06:01:55.657Z,25.55
2023-05-14T06:06:57.620Z,24.23
2023-05-14T06:11:59.043Z,23.40
2023-05-14T06:17:00.889Z,16.90
2023-05-14T06:22:02.852Z,17.35
2023-05-14T06:27:04.365Z,21.85
2023-05-14T06:32:06.412Z,19.25
2023-05-14T06:37:09.447Z,22.50
2023-05-14T06:42:10.916Z,19.02
2023-05-14T06:47:12.386Z,16.30
2023-05-14T06:52:13.775Z,20.33
2023-05-14T06:57:15.270Z,19.85
2023-05-14T07:02:16.728Z,14.57
2023-05-14T07:07:20.736Z,16.10
2023-05-14T07:12:22.258Z,10.90
2023-05-14T07:17:24.262Z,11.68
2023-05-14T07:22:25.836Z,15.25
2023-05-14T07:27:27.215Z,14.25
2023-05-14T07:32:28.623Z,15.98
2023-05-14T07:37:30.171Z,16.52
2023-05-14T07:42:36.396Z,15.85
2023-05-14T07:47:39.272Z,13.35
2023-05-14T07:52:40.820Z,12.02
2023-05-14T07:57:42.290Z,12.35
2023-05-14T08:02:44.739Z,11.07
2023-05-14T08:07:46.453Z,11.30
2023-05-14T08:12:47.953Z,13.43
2023-05-14T08:17:49.460Z,8.40
2023-05-14T08:22:50.870Z,10.85
2023-05-14T08:27:54.094Z,7.63
2023-05-14T08:32:55.569Z,8.27
2023-05-14T08:37:57.153Z,6.93
2023-05-14T08:42:58.946Z,7.78
2023-05-14T08:48:02.092Z,7.95
2023-05-14T08:53:03.712Z,8.40
2023-05-14T08:58:05.129Z,5.65
2023-05-14T09:03:07.122Z,6.65
2023-05-14T09:08:08.570Z,11.13
2023-05-14T09:13:10.253Z,8.38
2023-05-14T09:18:11.856Z,8.57
2023-05-14T09:23:13.586Z,9.57
2023-05-14T09:28:17.263Z,11.27
2023-05-14T09:33:31.764Z,7.30
2023-05-14T09:38:33.794Z,7.75
2023-05-14T09:43:36.424Z,10.18
2023-05-14T09:48:38.078Z,8.75
2023-05-14T09:53:41.238Z,13.32
2023-05-14T09:58:42.717Z,7.55
2023-05-14T10:03:44.466Z,7.38
2023-05-14T10:08:48.582Z,5.93
2023-05-14T10:14:07.664Z,6.07
2023-05-14T10:19:11.071Z,5.50
2023-05-14T10:24:13.027Z,5.40
2023-05-14T10:29:14.733Z,5.72
2023-05-14T10:34:38.264Z,5.82
2023-05-14T10:40:06.501Z,6.57
2023-05-14T10:45:10.807Z,6.82
2023-05-14T10:50:16.331Z,7.57
2023-05-14T10:55:17.855Z,7.47
2023-05-14T11:00:19.644Z,8.02
2023-05-14T11:05:21.203Z,7.28
2023-05-14T11:10:23.989Z,6.63
2023-05-14T11:15:26.815Z,3.87
2023-05-14T11:20:28.888Z,8.98
2023-05-14T11:25:30.708Z,7.13
2023-05-14T11:30:32.243Z,3.92
2023-05-14T11:35:33.676Z,4.10
2023-05-14T11:40:36.225Z,4.18
2023-05-14T11:45:37.842Z,6.28
2023-05-14T11:50:40.688Z,4.45
2023-05-14T11:55:42.294Z,4.32
2023-05-14T12:00:45.596Z,3.67
2023-05-14T12:06:01.148Z,7.27
2023-05-14T12:11:02.664Z,7.63
2023-05-14T12:16:05.402Z,4.28
2023-05-14T12:21:09.849Z,5.97
2023-05-14T12:31:16.593Z,5.40
2023-05-14T12:36:21.652Z,5.45
2023-05-14T12:41:23.764Z,4.80
2023-05-14T12:46:27.065Z,4.85
2023-05-14T12:51:28.737Z,7.07
2023-05-14T12:56:31.676Z,5.32
2023-05-14T13:01:33.336Z,4.78
2023-05-14T13:06:35.125Z,5.32
2023-05-14T13:11:36.955Z,5.90
2023-05-14T13:16:38.713Z,4.80
2023-05-14T13:21:40.331Z,6.35
2023-05-14T13:26:41.753Z,5.03
2023-05-14T13:31:43.221Z,5.60
2023-05-14T13:36:44.779Z,4.68
2023-05-14T13:41:46.389Z,3.83
2023-05-14T13:46:48.135Z,5.22
2023-05-14T13:51:49.793Z,7.75
2023-05-14T13:56:51.990Z,8.00
2023-05-14T14:01:53.512Z,5.93
2023-05-14T14:06:55.462Z,6.15
2023-05-14T14:11:56.937Z,7.72
2023-05-14T14:16:58.394Z,7.07
2023-05-14T14:21:59.862Z,5.65
2023-05-14T14:27:02.409Z,5.85
2023-05-14T14:32:04.382Z,15.52
2023-05-14T14:37:06.287Z,5.20
2023-05-14T14:42:07.796Z,6.78
2023-05-14T14:47:09.240Z,5.95
2023-05-14T14:52:10.696Z,7.60
2023-05-14T14:57:12.146Z,6.90
2023-05-14T15:02:13.925Z,5.07
2023-05-14T15:07:17.330Z,3.83
2023-05-14T15:12:19.137Z,5.07
2023-05-14T15:17:20.864Z,6.22
2023-05-14T15:22:22.453Z,10.85
2023-05-14T15:27:23.844Z,4.20
2023-05-14T15:32:27.050Z,5.47
2023-05-14T15:37:35.663Z,7.00
2023-05-14T15:42:38.741Z,7.25
2023-05-14T15:47:41.797Z,7.82
2023-05-14T15:52:43.287Z,5.88
2023-05-14T15:57:44.751Z,6.80
2023-05-14T16:02:46.296Z,4.32
2023-05-14T16:07:47.761Z,10.40
2023-05-14T16:12:49.199Z,3.75
2023-05-14T16:17:50.737Z,3.13
2023-05-14T16:22:52.462Z,6.05
2023-05-14T16:27:54.359Z,5.50
2023-05-14T16:32:55.766Z,3.88
2023-05-14T16:37:57.261Z,7.15
2023-05-14T16:42:58.703Z,3.92
2023-05-14T16:48:01.284Z,6.05
2023-05-14T16:53:02.942Z,3.50
2023-05-14T16:58:04.591Z,7.13
2023-05-14T17:03:07.102Z,4.07
2023-05-14T17:08:08.600Z,5.03
2023-05-14T17:13:10.051Z,7.10
2023-05-14T17:18:12.091Z,5.43
2023-05-14T17:23:13.748Z,4.43
2023-05-14T17:28:15.276Z,8.10
2023-05-14T17:33:17.118Z,10.82
2023-05-14T17:38:18.557Z,14.32
2023-05-14T17:43:19.974Z,12.82
2023-05-14T17:48:22.702Z,9.00
2023-05-14T17:53:24.178Z,13.80
2023-05-14T17:58:25.819Z,9.27
2023-05-14T18:03:27.538Z,7.93
2023-05-14T18:08:29.118Z,8.30
2023-05-14T18:13:30.613Z,7.63
2023-05-14T18:18:32.154Z,14.38
2023-05-14T18:23:33.689Z,11.15
2023-05-14T18:28:36.248Z,10.93
2023-05-14T18:33:37.726Z,20.02
2023-05-14T18:38:40.725Z,13.45
2023-05-14T18:43:42.208Z,12.63
2023-05-14T18:48:43.824Z,9.05
2023-05-14T18:53:45.356Z,12.23
2023-05-14T18:58:49.505Z,11.63
2023-05-14T19:03:52.929Z,16.60
2023-05-14T19:08:54.584Z,10.63
2023-05-14T19:13:57.120Z,9.43
2023-05-14T19:18:58.752Z,10.07
2023-05-14T19:24:00.640Z,8.55
2023-05-14T19:29:02.305Z,12.85
2023-05-14T19:34:03.992Z,7.25
2023-05-14T19:39:05.970Z,13.43
2023-05-14T19:44:07.785Z,6.13
2023-05-14T19:49:09.323Z,9.45
2023-05-14T19:54:11.109Z,7.80
2023-05-14T19:59:15.724Z,11.07
2023-05-14T20:04:17.915Z,11.43
2023-05-14T20:09:22.202Z,14.70
2023-05-14T20:14:23.872Z,9.77
2023-05-14T20:19:26.735Z,10.55
2023-05-14T20:24:28.670Z,13.45
2023-05-14T20:29:30.319Z,11.80
2023-05-14T20:34:31.916Z,12.10
2023-05-14T20:39:33.562Z,12.20
2023-05-14T20:44:36.415Z,11.80
2023-05-14T20:49:37.936Z,17.92
2023-05-14T20:54:39.392Z,9.23
2023-05-14T20:59:41.120Z,11.75
2023-05-14T21:04:42.932Z,16.65
2023-05-14T21:09:46.493Z,22.42
2023-05-14T21:14:47.991Z,15.20
2023-05-14T21:19:49.610Z,10.23
2023-05-14T21:24:51.396Z,13.30
2023-05-14T21:29:53.158Z,13.75
2023-05-14T21:34:54.710Z,15.55
2023-05-14T21:39:56.438Z,14.07
2023-05-14T21:44:58.052Z,15.60
2023-05-14T21:49:59.706Z,13.13
2023-05-14T21:55:01.445Z,12.48
2023-05-14T22:00:05.384Z,15.20
2023-05-14T22:05:07.081Z,13.75
2023-05-14T22:10:10.138Z,11.07
2023-05-14T22:15:12.385Z,15.13
2023-05-14T22:20:14.305Z,14.65
2023-05-14T22:25:15.866Z,15.32
2023-05-14T22:30:17.360Z,13.77
2023-05-14T22:35:18.962Z,14.95
2023-05-14T22:40:20.563Z,11.65
2023-05-14T22:45:22.249Z,14.27
2023-05-14T22:50:24.297Z,17.20
2023-05-14T22:55:26.076Z,12.60
2023-05-14T23:00:28.032Z,18.10
2023-05-14T23:05:29.514Z,18.25
2023-05-14T23:10:31.231Z,13.85
2023-05-14T23:15:32.990Z,17.95
2023-05-14T23:20:34.396Z,16.25
2023-05-14T23:25:35.940Z,20.65
2023-05-14T23:30:37.375Z,13.60
2023-05-14T23:35:39.296Z,15.38
2023-05-14T23:40:40.764Z,20.70
2023-05-14T23:45:42.309Z,12.77
2023-05-14T23:50:44.039Z,14.77
2023-05-14T23:55:45.508Z,13.50
